sensor_id;sensor_type;location;lat;lon;timestamp;P1;durP1;ratioP1;P2;durP2;ratioP2
14169;SDS011;63889;50.596;8.690;2023-05-16T00:00:19;14.60;;;9.80;;
14169;SDS011;63889;50.596;8.690;2023-05-16T00:02:45;14.32;;;10.07;;
14169;SDS011;63889;50.596;8.690;2023-05-16T00:05:11;14.70;;;9.57;;
14169;SDS011;63889;50.596;8.690;2023-05-16T00:07:41;16.63;;;10.88;;
14169;SDS011;63889;50.596;8.690;2023-05-16T00:10:08;19.73;;;11.25;;
14169;SDS011;63889;50.596;8.690;2023-05-16T00:12:35;22.33;;;11.80;;
14169;SDS011;63889;50.596;8.690;2023-05-16T00:15:03;20.67;;;11.55;;
14169;SDS011;63889;50.596;8.690;2023-05-16T00:17:30;22.52;;;12.57;;
14169;SDS011;63889;50.596;8.690;2023-05-16T00:19:56;23.08;;;12.75;;
14169;SDS011;63889;50.596;8.690;2023-05-16T00:22:25;18.42;;;11.45;;
14169;SDS011;63889;50.596;8.690;2023-05-16T00:24:51;18.08;;;9.90;;
14169;SDS011;63889;50.596;8.690;2023-05-16T00:27:17;12.45;;;8.60;;
14169;SDS011;63889;50.596;8.690;2023-05-16T00:29:42;19.17;;;7.13;;
14169;SDS011;63889;50.596;8.690;2023-05-16T00:32:08;10.88;;;7.43;;
14169;SDS011;63889;50.596;8.690;2023-05-16T00:34:34;12.60;;;8.02;;
14169;SDS011;63889;50.596;8.690;2023-05-16T00:37:00;13.30;;;7.80;;
14169;SDS011;63889;50.596;8.690;2023-05-16T00:39:25;12.77;;;7.60;;
14169;SDS011;63889;50.596;8.690;2023-05-16T00:41:51;13.80;;;8.20;;
14169;SDS011;63889;50.596;8.690;2023-05-16T00:44:17;11.55;;;7.53;;
14169;SDS011;63889;50.596;8.690;2023-05-16T00:46:42;17.10;;;8.38;;
14169;SDS011;63889;50.596;8.690;2023-05-16T00:49:08;12.02;;;7.55;;
14169;SDS011;63889;50.596;8.690;2023-05-16T00:51:35;18.58;;;8.15;;
14169;SDS011;63889;50.596;8.690;2023-05-16T00:54:02;17.05;;;8.75;;
14169;SDS011;63889;50.596;8.690;2023-05-16T00:56:28;10.55;;;7.70;;
14169;SDS011;63889;50.596;8.690;2023-05-16T00:58:53;15.88;;;8.10;;
14169;SDS011;63889;50.596;8.690;2023-05-16T01:01:19;14.68;;;9.13;;
14169;SDS011;63889;50.596;8.690;2023-05-16T01:03:49;15.27;;;8.82;;
14169;SDS011;63889;50.596;8.690;2023-05-16T01:06:14;23.58;;;9.18;;
14169;SDS011;63889;50.596;8.690;2023-05-16T01:08:40;14.10;;;8.73;;
14169;SDS011;63889;50.596;8.690;2023-05-16T01:16:21;19.58;;;7.95;;
14169;SDS011;63889;50.596;8.690;2023-05-16T01:19:30;16.02;;;9.05;;
14169;SDS011;63889;50.596;8.690;2023-05-16T01:27:24;18.75;;;10.30;;
14169;SDS011;63889;50.596;8.690;2023-05-16T01:29:55;23.77;;;11.13;;
14169;SDS011;63889;50.596;8.690;2023-05-16T01:32:20;25.60;;;12.60;;
14169;SDS011;63889;50.596;8.690;2023-05-16T01:34:49;18.58;;;10.07;;
14169;SDS011;63889;50.596;8.690;2023-05-16T01:37:20;22.73;;;11.05;;
14169;SDS011;63889;50.596;8.690;2023-05-16T01:39:56;25.25;;;11.43;;
14169;SDS011;63889;50.596;8.690;2023-05-16T01:42:31;20.15;;;11.38;;
14169;SDS011;63889;50.596;8.690;2023-05-16T01:45:17;19.40;;;10.75;;
14169;SDS011;63889;50.596;8.690;2023-05-16T01:47:50;18.27;;;9.55;;
14169;SDS011;63889;50.596;8.690;2023-05-16T01:50:22;12.45;;;7.85;;
14169;SDS011;63889;50.596;8.690;2023-05-16T01:52:55;15.25;;;7.28;;
14169;SDS011;63889;50.596;8.690;2023-05-16T01:55:33;14.60;;;7.32;;
14169;SDS011;63889;50.596;8.690;2023-05-16T01:58:02;10.88;;;6.95;;
14169;SDS011;63889;50.596;8.690;2023-05-16T02:00:29;15.32;;;7.68;;
14169;SDS011;63889;50.596;8.690;2023-05-16T02:02:55;11.02;;;6.93;;
14169;SDS011;63889;50.596;8.690;2023-05-16T02:05:21;14.00;;;8.82;;
14169;SDS011;63889;50.596;8.690;2023-05-16T02:07:46;14.40;;;8.35;;
14169;SDS011;63889;50.596;8.690;2023-05-16T02:10:13;15.18;;;9.25;;
14169;SDS011;63889;50.596;8.690;2023-05-16T02:12:38;14.82;;;9.50;;
14169;SDS011;63889;50.596;8.690;2023-05-16T02:15:04;17.83;;;9.68;;
14169;SDS011;63889;50.596;8.690;2023-05-16T02:17:30;20.25;;;9.95;;
14169;SDS011;63889;50.596;8.690;2023-05-16T02:19:56;22.83;;;12.73;;
14169;SDS011;63889;50.596;8.690;2023-05-16T02:22:21;19.05;;;10.07;;
14169;SDS011;63889;50.596;8.690;2023-05-16T02:24:47;19.75;;;10.63;;
14169;SDS011;63889;50.596;8.690;2023-05-16T02:27:12;20.98;;;11.63;;
14169;SDS011;63889;50.596;8.690;2023-05-16T02:29:38;18.23;;;9.85;;
14169;SDS011;63889;50.596;8.690;2023-05-16T02:32:03;18.27;;;10.05;;
14169;SDS011;63889;50.596;8.690;2023-05-16T02:34:29;15.52;;;8.20;;
14169;SDS011;63889;50.596;8.690;2023-05-16T02:36:55;31.50;;;15.43;;
14169;SDS011;63889;50.596;8.690;2023-05-16T02:39:20;14.05;;;8.95;;
14169;SDS011;63889;50.596;8.690;2023-05-16T02:41:46;11.98;;;8.18;;
14169;SDS011;63889;50.596;8.690;2023-05-16T02:44:12;16.15;;;8.98;;
14169;SDS011;63889;50.596;8.690;2023-05-16T02:46:37;19.98;;;8.07;;
14169;SDS011;63889;50.596;8.690;2023-05-16T02:49:03;14.50;;;8.57;;
14169;SDS011;63889;50.596;8.690;2023-05-16T02:51:28;14.73;;;8.90;;
14169;SDS011;63889;50.596;8.690;2023-05-16T02:53:54;16.23;;;8.68;;
14169;SDS011;63889;50.596;8.690;2023-05-16T02:56:26;17.75;;;8.73;;
14169;SDS011;63889;50.596;8.690;2023-05-16T02:58:52;19.10;;;9.90;;
14169;SDS011;63889;50.596;8.690;2023-05-16T03:01:18;17.38;;;10.18;;
14169;SDS011;63889;50.596;8.690;2023-05-16T03:03:44;16.98;;;9.80;;
14169;SDS011;63889;50.596;8.690;2023-05-16T03:06:09;16.80;;;9.60;;
14169;SDS011;63889;50.596;8.690;2023-05-16T03:08:35;15.43;;;8.00;;
14169;SDS011;63889;50.596;8.690;2023-05-16T03:11:01;18.98;;;9.30;;
14169;SDS011;63889;50.596;8.690;2023-05-16T03:13:26;14.98;;;8.65;;
14169;SDS011;63889;50.596;8.690;2023-05-16T03:15:54;14.13;;;8.02;;
14169;SDS011;63889;50.596;8.690;2023-05-16T03:18:19;16.05;;;8.13;;
14169;SDS011;63889;50.596;8.690;2023-05-16T03:20:45;12.98;;;8.10;;
14169;SDS011;63889;50.596;8.690;2023-05-16T03:23:11;20.27;;;10.27;;
14169;SDS011;63889;50.596;8.690;2023-05-16T03:25:36;21.25;;;12.18;;
14169;SDS011;63889;50.596;8.690;2023-05-16T03:28:03;22.58;;;11.75;;
14169;SDS011;63889;50.596;8.690;2023-05-16T03:30:31;22.38;;;12.00;;
14169;SDS011;63889;50.596;8.690;2023-05-16T03:32:57;19.60;;;11.95;;
14169;SDS011;63889;50.596;8.690;2023-05-16T03:35:22;26.65;;;14.23;;
14169;SDS011;63889;50.596;8.690;2023-05-16T03:37:48;20.98;;;12.20;;
14169;SDS011;63889;50.596;8.690;2023-05-16T03:40:14;25.05;;;12.57;;
14169;SDS011;63889;50.596;8.690;2023-05-16T03:42:39;24.02;;;12.20;;
14169;SDS011;63889;50.596;8.690;2023-05-16T03:45:05;24.10;;;13.13;;
14169;SDS011;63889;50.596;8.690;2023-05-16T03:47:31;25.77;;;12.20;;
14169;SDS011;63889;50.596;8.690;2023-05-16T03:49:57;23.90;;;13.50;;
14169;SDS011;63889;50.596;8.690;2023-05-16T03:52:23;25.58;;;12.50;;
14169;SDS011;63889;50.596;8.690;2023-05-16T03:54:48;24.63;;;12.02;;
14169;SDS011;63889;50.596;8.690;2023-05-16T03:57:14;24.60;;;12.50;;
14169;SDS011;63889;50.596;8.690;2023-05-16T03:59:40;20.10;;;11.10;;
14169;SDS011;63889;50.596;8.690;2023-05-16T04:02:06;20.42;;;11.73;;
14169;SDS011;63889;50.596;8.690;2023-05-16T04:04:31;23.13;;;12.63;;
14169;SDS011;63889;50.596;8.690;2023-05-16T04:06:57;21.95;;;11.27;;
14169;SDS011;63889;50.596;8.690;2023-05-16T04:09:22;26.15;;;13.20;;
14169;SDS011;63889;50.596;8.690;2023-05-16T04:11:48;24.67;;;12.00;;
14169;SDS011;63889;50.596;8.690;2023-05-16T04:14:14;28.55;;;12.70;;
14169;SDS011;63889;50.596;8.690;2023-05-16T04:16:40;23.70;;;13.10;;
14169;SDS011;63889;50.596;8.690;2023-05-16T04:19:05;26.13;;;11.85;;
14169;SDS011;63889;50.596;8.690;2023-05-16T04:21:31;22.25;;;11.55;;
14169;SDS011;63889;50.596;8.690;2023-05-16T04:23:57;23.33;;;11.27;;
14169;SDS011;63889;50.596;8.690;2023-05-16T04:26:23;16.95;;;9.57;;
14169;SDS011;63889;50.596;8.690;2023-05-16T04:28:48;17.73;;;8.68;;
14169;SDS011;63889;50.596;8.690;2023-05-16T04:31:14;15.55;;;7.65;;
14169;SDS011;63889;50.596;8.690;2023-05-16T04:33:40;14.93;;;7.63;;
14169;SDS011;63889;50.596;8.690;2023-05-16T04:36:06;11.60;;;6.72;;
14169;SDS011;63889;50.596;8.690;2023-05-16T04:38:32;10.80;;;6.28;;
14169;SDS011;63889;50.596;8.690;2023-05-16T04:40:57;10.20;;;6.20;;
14169;SDS011;63889;50.596;8.690;2023-05-16T04:43:23;12.02;;;6.30;;
14169;SDS011;63889;50.596;8.690;2023-05-16T04:45:48;9.23;;;5.30;;
14169;SDS011;63889;50.596;8.690;2023-05-16T04:48:14;8.90;;;5.38;;
14169;SDS011;63889;50.596;8.690;2023-05-16T04:50:41;11.23;;;5.55;;
14169;SDS011;63889;50.596;8.690;2023-05-16T04:53:06;10.13;;;6.20;;
14169;SDS011;63889;50.596;8.690;2023-05-16T04:55:32;13.20;;;6.10;;
14169;SDS011;63889;50.596;8.690;2023-05-16T04:57:57;10.10;;;5.97;;
14169;SDS011;63889;50.596;8.690;2023-05-16T05:00:23;14.82;;;7.25;;
14169;SDS011;63889;50.596;8.690;2023-05-16T05:02:49;10.63;;;5.50;;
14169;SDS011;63889;50.596;8.690;2023-05-16T05:05:14;8.20;;;5.28;;
14169;SDS011;63889;50.596;8.690;2023-05-16T05:07:40;14.90;;;5.35;;
14169;SDS011;63889;50.596;8.690;2023-05-16T05:10:05;9.48;;;5.53;;
14169;SDS011;63889;50.596;8.690;2023-05-16T05:12:32;11.32;;;5.85;;
14169;SDS011;63889;50.596;8.690;2023-05-16T05:14:59;12.63;;;5.38;;
14169;SDS011;63889;50.596;8.690;2023-05-16T05:17:25;10.27;;;5.35;;
14169;SDS011;63889;50.596;8.690;2023-05-16T05:19:50;11.45;;;5.82;;
14169;SDS011;63889;50.596;8.690;2023-05-16T05:22:16;10.30;;;6.03;;
14169;SDS011;63889;50.596;8.690;2023-05-16T05:24:41;11.75;;;5.55;;
14169;SDS011;63889;50.596;8.690;2023-05-16T05:27:07;11.73;;;6.40;;
14169;SDS011;63889;50.596;8.690;2023-05-16T05:29:32;13.05;;;6.07;;
14169;SDS011;63889;50.596;8.690;2023-05-16T05:31:58;12.55;;;5.80;;
14169;SDS011;63889;50.596;8.690;2023-05-16T05:34:24;11.52;;;5.68;;
14169;SDS011;63889;50.596;8.690;2023-05-16T05:36:49;9.70;;;5.30;;
14169;SDS011;63889;50.596;8.690;2023-05-16T05:39:15;10.20;;;4.80;;
14169;SDS011;63889;50.596;8.690;2023-05-16T05:41:40;8.05;;;5.22;;
14169;SDS011;63889;50.596;8.690;2023-05-16T05:44:06;11.02;;;5.68;;
14169;SDS011;63889;50.596;8.690;2023-05-16T05:46:32;9.73;;;4.38;;
14169;SDS011;63889;50.596;8.690;2023-05-16T05:48:58;9.80;;;4.57;;
14169;SDS011;63889;50.596;8.690;2023-05-16T05:51:24;9.70;;;4.82;;
14169;SDS011;63889;50.596;8.690;2023-05-16T05:53:50;13.45;;;4.85;;
14169;SDS011;63889;50.596;8.690;2023-05-16T05:56:16;8.25;;;4.70;;
14169;SDS011;63889;50.596;8.690;2023-05-16T05:58:42;8.57;;;4.28;;
14169;SDS011;63889;50.596;8.690;2023-05-16T06:01:09;6.65;;;3.70;;
14169;SDS011;63889;50.596;8.690;2023-05-16T06:03:35;5.30;;;2.95;;
14169;SDS011;63889;50.596;8.690;2023-05-16T06:06:00;7.75;;;3.42;;
14169;SDS011;63889;50.596;8.690;2023-05-16T06:08:26;6.07;;;4.00;;
14169;SDS011;63889;50.596;8.690;2023-05-16T06:10:51;4.32;;;2.92;;
14169;SDS011;63889;50.596;8.690;2023-05-16T06:13:17;4.22;;;2.70;;
14169;SDS011;63889;50.596;8.690;2023-05-16T06:15:42;6.25;;;2.78;;
14169;SDS011;63889;50.596;8.690;2023-05-16T06:18:08;4.25;;;2.60;;
14169;SDS011;63889;50.596;8.690;2023-05-16T06:20:33;4.15;;;2.92;;
14169;SDS011;63889;50.596;8.690;2023-05-16T06:22:59;7.07;;;2.72;;
14169;SDS011;63889;50.596;8.690;2023-05-16T06:25:25;2.78;;;2.28;;
14169;SDS011;63889;50.596;8.690;2023-05-16T06:27:50;2.85;;;1.85;;
14169;SDS011;63889;50.596;8.690;2023-05-16T06:30:16;3.10;;;1.25;;
14169;SDS011;63889;50.596;8.690;2023-05-16T06:32:42;1.63;;;1.00;;
14169;SDS011;63889;50.596;8.690;2023-05-16T06:35:07;1.15;;;0.95;;
14169;SDS011;63889;50.596;8.690;2023-05-16T06:37:33;2.33;;;0.90;;
14169;SDS011;63889;50.596;8.690;2023-05-16T06:39:59;1.33;;;0.85;;
14169;SDS011;63889;50.596;8.690;2023-05-16T06:42:25;2.72;;;0.73;;
14169;SDS011;63889;50.596;8.690;2023-05-16T06:44:50;4.05;;;0.60;;
14169;SDS011;63889;50.596;8.690;2023-05-16T06:47:16;3.22;;;0.63;;
14169;SDS011;63889;50.596;8.690;2023-05-16T06:49:41;2.20;;;0.65;;
14169;SDS011;63889;50.596;8.690;2023-05-16T06:52:07;2.75;;;0.75;;
14169;SDS011;63889;50.596;8.690;2023-05-16T06:54:32;1.58;;;0.80;;
14169;SDS011;63889;50.596;8.690;2023-05-16T06:56:59;0.95;;;0.65;;
14169;SDS011;63889;50.596;8.690;2023-05-16T06:59:24;1.33;;;0.80;;
14169;SDS011;63889;50.596;8.690;2023-05-16T07:01:50;0.88;;;0.65;;
14169;SDS011;63889;50.596;8.690;2023-05-16T07:04:15;2.25;;;1.20;;
14169;SDS011;63889;50.596;8.690;2023-05-16T07:06:41;0.70;;;0.40;;
14169;SDS011;63889;50.596;8.690;2023-05-16T07:09:07;1.92;;;0.70;;
14169;SDS011;63889;50.596;8.690;2023-05-16T07:11:32;2.88;;;0.70;;
14169;SDS011;63889;50.596;8.690;2023-05-16T07:13:58;1.20;;;0.60;;
14169;SDS011;63889;50.596;8.690;2023-05-16T07:16:23;1.10;;;0.75;;
14169;SDS011;63889;50.596;8.690;2023-05-16T07:18:52;6.38;;;0.80;;
14169;SDS011;63889;50.596;8.690;2023-05-16T07:21:18;3.08;;;0.82;;
14169;SDS011;63889;50.596;8.690;2023-05-16T07:23:43;0.77;;;0.70;;
14169;SDS011;63889;50.596;8.690;2023-05-16T07:26:09;2.17;;;0.90;;
14169;SDS011;63889;50.596;8.690;2023-05-16T07:28:34;2.53;;;0.85;;
14169;SDS011;63889;50.596;8.690;2023-05-16T07:31:00;1.40;;;0.80;;
14169;SDS011;63889;50.596;8.690;2023-05-16T07:33:25;4.75;;;1.00;;
14169;SDS011;63889;50.596;8.690;2023-05-16T07:35:51;1.80;;;0.93;;
14169;SDS011;63889;50.596;8.690;2023-05-16T07:38:18;2.35;;;0.88;;
14169;SDS011;63889;50.596;8.690;2023-05-16T07:40:45;3.63;;;1.25;;
14169;SDS011;63889;50.596;8.690;2023-05-16T07:43:10;3.63;;;1.40;;
14169;SDS011;63889;50.596;8.690;2023-05-16T07:45:36;2.60;;;1.10;;
14169;SDS011;63889;50.596;8.690;2023-05-16T07:48:01;4.18;;;0.80;;
14169;SDS011;63889;50.596;8.690;2023-05-16T07:50:27;3.47;;;1.30;;
14169;SDS011;63889;50.596;8.690;2023-05-16T07:52:53;2.90;;;1.15;;
14169;SDS011;63889;50.596;8.690;2023-05-16T07:55:18;11.50;;;1.92;;
14169;SDS011;63889;50.596;8.690;2023-05-16T07:57:46;2.60;;;1.27;;
14169;SDS011;63889;50.596;8.690;2023-05-16T08:00:12;4.20;;;1.55;;
14169;SDS011;63889;50.596;8.690;2023-05-16T08:02:38;5.35;;;1.67;;
14169;SDS011;63889;50.596;8.690;2023-05-16T08:05:04;3.67;;;1.30;;
14169;SDS011;63889;50.596;8.690;2023-05-16T08:07:31;7.13;;;1.60;;
14169;SDS011;63889;50.596;8.690;2023-05-16T08:09:57;7.38;;;1.30;;
14169;SDS011;63889;50.596;8.690;2023-05-16T08:12:22;2.72;;;1.45;;
14169;SDS011;63889;50.596;8.690;2023-05-16T08:14:49;4.68;;;1.45;;
14169;SDS011;63889;50.596;8.690;2023-05-16T08:17:14;8.27;;;1.83;;
14169;SDS011;63889;50.596;8.690;2023-05-16T08:19:40;7.60;;;1.70;;
14169;SDS011;63889;50.596;8.690;2023-05-16T08:22:06;6.90;;;1.90;;
14169;SDS011;63889;50.596;8.690;2023-05-16T08:24:33;3.83;;;1.23;;
14169;SDS011;63889;50.596;8.690;2023-05-16T08:26:58;4.60;;;1.48;;
14169;SDS011;63889;50.596;8.690;2023-05-16T08:29:24;4.97;;;1.20;;
14169;SDS011;63889;50.596;8.690;2023-05-16T08:31:50;3.00;;;1.17;;
14169;SDS011;63889;50.596;8.690;2023-05-16T08:34:16;11.82;;;2.05;;
14169;SDS011;63889;50.596;8.690;2023-05-16T08:36:41;8.25;;;1.60;;
14169;SDS011;63889;50.596;8.690;2023-05-16T08:39:07;2.65;;;1.20;;
14169;SDS011;63889;50.596;8.690;2023-05-16T08:41:35;5.78;;;1.63;;
14169;SDS011;63889;50.596;8.690;2023-05-16T08:44:01;3.65;;;1.52;;
14169;SDS011;63889;50.596;8.690;2023-05-16T08:46:27;5.13;;;1.60;;
14169;SDS011;63889;50.596;8.690;2023-05-16T08:48:53;5.10;;;2.13;;
14169;SDS011;63889;50.596;8.690;2023-05-16T08:51:23;6.35;;;1.13;;
14169;SDS011;63889;50.596;8.690;2023-05-16T08:53:53;9.32;;;1.05;;
14169;SDS011;63889;50.596;8.690;2023-05-16T08:56:24;4.60;;;1.35;;
14169;SDS011;63889;50.596;8.690;2023-05-16T08:58:50;4.38;;;1.30;;
14169;SDS011;63889;50.596;8.690;2023-05-16T09:01:19;4.38;;;1.38;;
14169;SDS011;63889;50.596;8.690;2023-05-16T09:03:46;4.95;;;1.20;;
14169;SDS011;63889;50.596;8.690;2023-05-16T09:06:12;4.85;;;1.10;;
14169;SDS011;63889;50.596;8.690;2023-05-16T09:08:38;4.03;;;1.10;;
14169;SDS011;63889;50.596;8.690;2023-05-16T09:11:03;7.85;;;1.58;;
14169;SDS011;63889;50.596;8.690;2023-05-16T09:13:29;9.13;;;1.60;;
14169;SDS011;63889;50.596;8.690;2023-05-16T09:18:53;4.68;;;1.77;;
14169;SDS011;63889;50.596;8.690;2023-05-16T09:21:21;8.80;;;2.22;;
14169;SDS011;63889;50.596;8.690;2023-05-16T09:23:48;4.55;;;1.40;;
14169;SDS011;63889;50.596;8.690;2023-05-16T09:26:14;4.93;;;1.27;;
14169;SDS011;63889;50.596;8.690;2023-05-16T09:28:40;4.22;;;1.40;;
14169;SDS011;63889;50.596;8.690;2023-05-16T09:31:25;3.92;;;1.48;;
14169;SDS011;63889;50.596;8.690;2023-05-16T09:33:52;8.68;;;1.58;;
14169;SDS011;63889;50.596;8.690;2023-05-16T09:36:20;2.67;;;1.30;;
14169;SDS011;63889;50.596;8.690;2023-05-16T09:38:45;4.22;;;1.38;;
14169;SDS011;63889;50.596;8.690;2023-05-16T09:41:11;4.57;;;1.30;;
14169;SDS011;63889;50.596;8.690;2023-05-16T09:43:37;11.18;;;2.10;;
14169;SDS011;63889;50.596;8.690;2023-05-16T09:46:05;9.77;;;1.60;;
14169;SDS011;63889;50.596;8.690;2023-05-16T09:48:31;3.13;;;1.05;;
14169;SDS011;63889;50.596;8.690;2023-05-16T09:50:57;9.10;;;1.33;;
14169;SDS011;63889;50.596;8.690;2023-05-16T09:53:28;7.55;;;1.05;;
14169;SDS011;63889;50.596;8.690;2023-05-16T09:55:58;13.23;;;1.25;;
14169;SDS011;63889;50.596;8.690;2023-05-16T09:58:28;4.25;;;0.95;;
14169;SDS011;63889;50.596;8.690;2023-05-16T10:00:55;5.88;;;1.23;;
14169;SDS011;63889;50.596;8.690;2023-05-16T10:03:21;3.65;;;1.08;;
14169;SDS011;63889;50.596;8.690;2023-05-16T10:05:48;4.72;;;1.17;;
14169;SDS011;63889;50.596;8.690;2023-05-16T10:08:14;7.57;;;1.40;;
14169;SDS011;63889;50.596;8.690;2023-05-16T10:10:40;5.72;;;1.30;;
14169;SDS011;63889;50.596;8.690;2023-05-16T10:13:06;7.28;;;1.38;;
14169;SDS011;63889;50.596;8.690;2023-05-16T10:15:34;5.10;;;1.27;;
14169;SDS011;63889;50.596;8.690;2023-05-16T10:18:01;5.70;;;1.33;;
14169;SDS011;63889;50.596;8.690;2023-05-16T10:20:29;7.90;;;1.27;;
14169;SDS011;63889;50.596;8.690;2023-05-16T10:22:55;5.88;;;1.15;;
14169;SDS011;63889;50.596;8.690;2023-05-16T10:25:31;2.25;;;1.08;;
14169;SDS011;63889;50.596;8.690;2023-05-16T10:28:01;7.60;;;0.90;;
14169;SDS011;63889;50.596;8.690;2023-05-16T10:30:28;5.25;;;1.05;;
14169;SDS011;63889;50.596;8.690;2023-05-16T10:32:55;5.10;;;1.58;;
14169;SDS011;63889;50.596;8.690;2023-05-16T10:35:21;4.95;;;0.80;;
14169;SDS011;63889;50.596;8.690;2023-05-16T10:37:47;6.35;;;1.20;;
14169;SDS011;63889;50.596;8.690;2023-05-16T10:40:15;3.53;;;0.88;;
14169;SDS011;63889;50.596;8.690;2023-05-16T10:42:54;5.68;;;1.00;;
14169;SDS011;63889;50.596;8.690;2023-05-16T10:45:25;5.68;;;1.13;;
14169;SDS011;63889;50.596;8.690;2023-05-16T10:47:51;3.95;;;1.10;;
14169;SDS011;63889;50.596;8.690;2023-05-16T10:53:13;8.38;;;1.33;;
14169;SDS011;63889;50.596;8.690;2023-05-16T10:55:38;7.20;;;2.28;;
14169;SDS011;63889;50.596;8.690;2023-05-16T10:58:04;1.48;;;0.80;;
14169;SDS011;63889;50.596;8.690;2023-05-16T11:00:30;2.83;;;0.70;;
14169;SDS011;63889;50.596;8.690;2023-05-16T11:03:05;2.85;;;0.70;;
14169;SDS011;63889;50.596;8.690;2023-05-16T11:05:43;4.88;;;1.05;;
14169;SDS011;63889;50.596;8.690;2023-05-16T11:08:16;4.60;;;1.42;;
14169;SDS011;63889;50.596;8.690;2023-05-16T11:10:41;7.82;;;1.70;;
14169;SDS011;63889;50.596;8.690;2023-05-16T11:13:07;4.88;;;0.95;;
14169;SDS011;63889;50.596;8.690;2023-05-16T11:15:32;5.90;;;1.35;;
14169;SDS011;63889;50.596;8.690;2023-05-16T11:18:14;5.15;;;1.20;;
14169;SDS011;63889;50.596;8.690;2023-05-16T11:20:40;4.78;;;1.02;;
14169;SDS011;63889;50.596;8.690;2023-05-16T11:25:41;7.38;;;1.30;;
14169;SDS011;63889;50.596;8.690;2023-05-16T11:28:09;6.28;;;1.27;;
14169;SDS011;63889;50.596;8.690;2023-05-16T11:30:41;3.28;;;0.80;;
14169;SDS011;63889;50.596;8.690;2023-05-16T11:33:08;3.95;;;0.82;;
14169;SDS011;63889;50.596;8.690;2023-05-16T11:35:33;2.65;;;0.88;;
14169;SDS011;63889;50.596;8.690;2023-05-16T11:37:59;3.72;;;1.00;;
14169;SDS011;63889;50.596;8.690;2023-05-16T11:40:25;2.92;;;0.90;;
14169;SDS011;63889;50.596;8.690;2023-05-16T11:42:51;2.70;;;0.77;;
14169;SDS011;63889;50.596;8.690;2023-05-16T11:45:17;3.25;;;1.10;;
14169;SDS011;63889;50.596;8.690;2023-05-16T11:47:45;4.22;;;0.88;;
14169;SDS011;63889;50.596;8.690;2023-05-16T11:50:16;10.77;;;1.40;;
14169;SDS011;63889;50.596;8.690;2023-05-16T11:52:45;4.70;;;1.52;;
14169;SDS011;63889;50.596;8.690;2023-05-16T11:55:12;4.20;;;0.88;;
14169;SDS011;63889;50.596;8.690;2023-05-16T11:57:40;3.45;;;1.00;;
14169;SDS011;63889;50.596;8.690;2023-05-16T12:00:17;5.40;;;0.70;;
14169;SDS011;63889;50.596;8.690;2023-05-16T12:02:44;3.72;;;1.25;;
14169;SDS011;63889;50.596;8.690;2023-05-16T12:05:14;5.35;;;0.85;;
14169;SDS011;63889;50.596;8.690;2023-05-16T12:07:44;3.08;;;0.90;;
14169;SDS011;63889;50.596;8.690;2023-05-16T12:10:15;5.00;;;1.23;;
14169;SDS011;63889;50.596;8.690;2023-05-16T12:12:41;3.80;;;1.02;;
14169;SDS011;63889;50.596;8.690;2023-05-16T12:15:09;3.53;;;0.98;;
14169;SDS011;63889;50.596;8.690;2023-05-16T12:17:35;4.82;;;0.95;;
14169;SDS011;63889;50.596;8.690;2023-05-16T12:20:03;4.00;;;0.90;;
14169;SDS011;63889;50.596;8.690;2023-05-16T12:22:35;2.58;;;1.08;;
14169;SDS011;63889;50.596;8.690;2023-05-16T12:28:00;3.65;;;0.88;;
14169;SDS011;63889;50.596;8.690;2023-05-16T12:30:27;2.80;;;0.90;;
14169;SDS011;63889;50.596;8.690;2023-05-16T12:32:57;3.88;;;0.93;;
14169;SDS011;63889;50.596;8.690;2023-05-16T12:35:37;4.38;;;0.80;;
14169;SDS011;63889;50.596;8.690;2023-05-16T12:38:04;3.80;;;1.10;;
14169;SDS011;63889;50.596;8.690;2023-05-16T12:40:31;5.18;;;1.10;;
14169;SDS011;63889;50.596;8.690;2023-05-16T12:42:57;6.50;;;1.10;;
14169;SDS011;63889;50.596;8.690;2023-05-16T12:45:23;4.95;;;1.10;;
14169;SDS011;63889;50.596;8.690;2023-05-16T12:47:51;7.13;;;1.95;;
14169;SDS011;63889;50.596;8.690;2023-05-16T12:50:17;6.68;;;1.10;;
14169;SDS011;63889;50.596;8.690;2023-05-16T12:52:49;6.70;;;1.20;;
14169;SDS011;63889;50.596;8.690;2023-05-16T12:55:16;2.13;;;1.13;;
14169;SDS011;63889;50.596;8.690;2023-05-16T12:57:43;4.00;;;1.13;;
14169;SDS011;63889;50.596;8.690;2023-05-16T13:00:10;5.15;;;0.88;;
14169;SDS011;63889;50.596;8.690;2023-05-16T13:02:37;3.88;;;1.20;;
14169;SDS011;63889;50.596;8.690;2023-05-16T13:05:03;4.30;;;1.40;;
14169;SDS011;63889;50.596;8.690;2023-05-16T13:07:29;3.83;;;0.90;;
14169;SDS011;63889;50.596;8.690;2023-05-16T13:09:54;4.68;;;1.55;;
14169;SDS011;63889;50.596;8.690;2023-05-16T13:12:20;5.72;;;1.20;;
14169;SDS011;63889;50.596;8.690;2023-05-16T13:14:50;4.65;;;0.80;;
14169;SDS011;63889;50.596;8.690;2023-05-16T13:17:19;3.50;;;0.90;;
14169;SDS011;63889;50.596;8.690;2023-05-16T13:19:44;3.63;;;0.70;;
14169;SDS011;63889;50.596;8.690;2023-05-16T13:22:10;2.83;;;0.63;;
14169;SDS011;63889;50.596;8.690;2023-05-16T13:24:36;5.65;;;0.90;;
14169;SDS011;63889;50.596;8.690;2023-05-16T13:27:02;5.07;;;1.08;;
14169;SDS011;63889;50.596;8.690;2023-05-16T13:29:27;3.90;;;0.77;;
14169;SDS011;63889;50.596;8.690;2023-05-16T13:31:53;1.75;;;0.60;;
14169;SDS011;63889;50.596;8.690;2023-05-16T13:34:18;2.53;;;0.60;;
14169;SDS011;63889;50.596;8.690;2023-05-16T13:36:44;5.38;;;0.70;;
14169;SDS011;63889;50.596;8.690;2023-05-16T13:39:11;3.40;;;0.55;;
14169;SDS011;63889;50.596;8.690;2023-05-16T13:41:37;2.65;;;1.20;;
14169;SDS011;63889;50.596;8.690;2023-05-16T13:44:04;2.75;;;0.88;;
14169;SDS011;63889;50.596;8.690;2023-05-16T13:46:30;1.90;;;0.60;;
14169;SDS011;63889;50.596;8.690;2023-05-16T13:48:55;2.40;;;0.70;;
14169;SDS011;63889;50.596;8.690;2023-05-16T13:51:21;4.38;;;0.63;;
14169;SDS011;63889;50.596;8.690;2023-05-16T13:53:47;2.25;;;0.65;;
14169;SDS011;63889;50.596;8.690;2023-05-16T13:56:12;4.47;;;0.80;;
14169;SDS011;63889;50.596;8.690;2023-05-16T13:58:38;4.28;;;0.75;;
14169;SDS011;63889;50.596;8.690;2023-05-16T14:01:03;2.28;;;0.60;;
14169;SDS011;63889;50.596;8.690;2023-05-16T14:03:29;4.95;;;0.80;;
14169;SDS011;63889;50.596;8.690;2023-05-16T14:05:55;3.13;;;0.80;;
14169;SDS011;63889;50.596;8.690;2023-05-16T14:08:21;3.20;;;0.85;;
14169;SDS011;63889;50.596;8.690;2023-05-16T14:10:47;2.65;;;0.57;;
14169;SDS011;63889;50.596;8.690;2023-05-16T14:13:12;4.45;;;0.65;;
14169;SDS011;63889;50.596;8.690;2023-05-16T14:15:38;3.75;;;0.88;;
14169;SDS011;63889;50.596;8.690;2023-05-16T14:18:03;4.40;;;0.65;;
14169;SDS011;63889;50.596;8.690;2023-05-16T14:20:29;5.20;;;0.93;;
14169;SDS011;63889;50.596;8.690;2023-05-16T14:22:55;3.53;;;0.70;;
14169;SDS011;63889;50.596;8.690;2023-05-16T14:25:21;1.85;;;0.68;;
14169;SDS011;63889;50.596;8.690;2023-05-16T14:27:47;2.63;;;0.77;;
14169;SDS011;63889;50.596;8.690;2023-05-16T14:30:14;6.20;;;0.80;;
14169;SDS011;63889;50.596;8.690;2023-05-16T14:32:40;2.95;;;0.63;;
14169;SDS011;63889;50.596;8.690;2023-05-16T14:35:06;4.03;;;0.70;;
14169;SDS011;63889;50.596;8.690;2023-05-16T14:37:33;4.90;;;0.60;;
14169;SDS011;63889;50.596;8.690;2023-05-16T14:39:59;5.10;;;0.93;;
14169;SDS011;63889;50.596;8.690;2023-05-16T14:42:25;2.92;;;0.73;;
14169;SDS011;63889;50.596;8.690;2023-05-16T14:44:50;1.17;;;0.60;;
14169;SDS011;63889;50.596;8.690;2023-05-16T14:47:16;2.45;;;0.65;;
14169;SDS011;63889;50.596;8.690;2023-05-16T14:49:41;3.78;;;0.90;;
14169;SDS011;63889;50.596;8.690;2023-05-16T14:52:07;1.83;;;0.95;;
14169;SDS011;63889;50.596;8.690;2023-05-16T14:54:33;5.63;;;0.80;;
14169;SDS011;63889;50.596;8.690;2023-05-16T14:56:59;1.67;;;0.60;;
14169;SDS011;63889;50.596;8.690;2023-05-16T14:59:25;2.15;;;0.63;;